WZZ9007 LZIB-LOWS
Flight info
| Callsign | WZZ9007 |
|---|---|
| Flight time | 0h 38m |
| Altitude | 24000 |
| Route | TOVKA DCT MATIG MATIG2R |
| Aircraft | A20N/M-SDE2E3FGHIRWXY/LB1 |
Departure
| Time | 2026-05-06 19:15 |
|---|---|
| Airport | M. R. Štefánik Airport (LZIB) |
Arrival
| Time | 2026-05-06 19:53 |
|---|---|
| Airport | Salzburg Airport (LOWS) |
| Time | Latitude | Longitude | Altitude | Speed | Heading |
|---|---|---|---|---|---|
| 2026-05-06 18:59 | 48.16921 | 17.20099 | 444 ft | 0 kts | 314° |
| 2026-05-06 19:07 | 48.16920 | 17.20101 | 444 ft | 1 kts | 314° |
| 2026-05-06 19:07 | 48.16914 | 17.20112 | 444 ft | 2 kts | 311° |
| 2026-05-06 19:07 | 48.16900 | 17.20133 | 444 ft | 2 kts | 314° |
| 2026-05-06 19:07 | 48.16887 | 17.20146 | 444 ft | 2 kts | 349° |
| 2026-05-06 19:08 | 48.16872 | 17.20145 | 444 ft | 2 kts | 22° |
| 2026-05-06 19:08 | 48.16864 | 17.20138 | 444 ft | 0 kts | 43° |
| 2026-05-06 19:08 | 48.16859 | 17.20131 | 444 ft | 0 kts | 46° |
| 2026-05-06 19:10 | 48.16862 | 17.20135 | 444 ft | 1 kts | 46° |
| 2026-05-06 19:10 | 48.16876 | 17.20156 | 444 ft | 3 kts | 46° |
| 2026-05-06 19:11 | 48.16900 | 17.20192 | 444 ft | 5 kts | 43° |
| 2026-05-06 19:11 | 48.16933 | 17.20237 | 444 ft | 7 kts | 42° |
| 2026-05-06 19:11 | 48.16974 | 17.20294 | 444 ft | 8 kts | 43° |
| 2026-05-06 19:11 | 48.17022 | 17.20361 | 444 ft | 9 kts | 43° |
| 2026-05-06 19:12 | 48.17073 | 17.20435 | 444 ft | 10 kts | 44° |
| 2026-05-06 19:12 | 48.17129 | 17.20519 | 444 ft | 11 kts | 45° |
| 2026-05-06 19:12 | 48.17197 | 17.20579 | 444 ft | 12 kts | 356° |
| 2026-05-06 19:12 | 48.17265 | 17.20501 | 444 ft | 13 kts | 314° |
| 2026-05-06 19:13 | 48.17330 | 17.20399 | 444 ft | 13 kts | 313° |
| 2026-05-06 19:13 | 48.17403 | 17.20306 | 444 ft | 14 kts | 338° |
| 2026-05-06 19:13 | 48.17455 | 17.20299 | 444 ft | 0 kts | 12° |
| 2026-05-06 19:14 | 48.17456 | 17.20299 | 444 ft | 0 kts | 12° |
| 2026-05-06 19:14 | 48.17497 | 17.20327 | 444 ft | 12 kts | 32° |
| 2026-05-06 19:14 | 48.17532 | 17.20436 | 444 ft | 12 kts | 103° |
| 2026-05-06 19:14 | 48.17478 | 17.20541 | 444 ft | 13 kts | 134° |
| 2026-05-06 19:15 | 48.17253 | 17.20888 | 444 ft | 83 kts | 134° |
| 2026-05-06 19:15 | 48.16699 | 17.21755 | 445 ft | 144 kts | 134° |
| 2026-05-06 19:15 | 48.15920 | 17.22960 | 806 ft | 164 kts | 136° |
| 2026-05-06 19:15 | 48.15150 | 17.24165 | 1554 ft | 162 kts | 136° |
| 2026-05-06 19:16 | 48.14380 | 17.25350 | 2264 ft | 163 kts | 137° |
| 2026-05-06 19:16 | 48.13559 | 17.26608 | 2750 ft | 176 kts | 137° |
| 2026-05-06 19:16 | 48.12674 | 17.27968 | 3177 ft | 192 kts | 137° |
| 2026-05-06 19:16 | 48.11704 | 17.29457 | 3676 ft | 205 kts | 139° |
| 2026-05-06 19:17 | 48.10578 | 17.30893 | 4126 ft | 222 kts | 137° |
| 2026-05-06 19:17 | 48.09770 | 17.32977 | 4480 ft | 252 kts | 107° |
| 2026-05-06 19:17 | 48.09772 | 17.35710 | 4954 ft | 279 kts | 77° |
| 2026-05-06 19:17 | 48.10771 | 17.38274 | 5604 ft | 296 kts | 44° |
| 2026-05-06 19:18 | 48.12577 | 17.39729 | 6342 ft | 302 kts | 10° |
| 2026-05-06 19:18 | 48.14636 | 17.39602 | 7066 ft | 300 kts | 336° |
| 2026-05-06 19:18 | 48.16326 | 17.37932 | 7771 ft | 291 kts | 303° |
| 2026-05-06 19:18 | 48.17221 | 17.35333 | 8452 ft | 285 kts | 282° |
| 2026-05-06 19:19 | 48.17762 | 17.32475 | 9152 ft | 288 kts | 279° |
| 2026-05-06 19:19 | 48.18303 | 17.29569 | 9845 ft | 291 kts | 281° |
| 2026-05-06 19:19 | 48.18903 | 17.26642 | 10451 ft | 298 kts | 283° |
| 2026-05-06 19:19 | 48.19567 | 17.23646 | 10790 ft | 314 kts | 284° |
| 2026-05-06 19:20 | 48.20300 | 17.20476 | 11083 ft | 329 kts | 285° |
| 2026-05-06 19:20 | 48.21090 | 17.17164 | 11385 ft | 345 kts | 285° |
| 2026-05-06 19:20 | 48.21923 | 17.13721 | 11665 ft | 361 kts | 286° |
| 2026-05-06 19:20 | 48.22792 | 17.10140 | 11995 ft | 374 kts | 286° |
| 2026-05-06 19:21 | 48.23683 | 17.06471 | 12606 ft | 376 kts | 286° |
| 2026-05-06 19:21 | 48.24567 | 17.02802 | 13277 ft | 379 kts | 286° |
| 2026-05-06 19:21 | 48.25473 | 16.99038 | 13923 ft | 381 kts | 286° |
| 2026-05-06 19:21 | 48.26277 | 16.95279 | 14492 ft | 380 kts | 280° |
| 2026-05-06 19:22 | 48.26723 | 16.91394 | 15010 ft | 381 kts | 272° |
| 2026-05-06 19:22 | 48.26786 | 16.87427 | 15591 ft | 383 kts | 265° |
| 2026-05-06 19:22 | 48.26621 | 16.83405 | 16228 ft | 385 kts | 263° |
| 2026-05-06 19:22 | 48.26423 | 16.79418 | 16840 ft | 388 kts | 263° |
| 2026-05-06 19:23 | 48.26219 | 16.75403 | 17436 ft | 390 kts | 263° |
| 2026-05-06 19:23 | 48.26012 | 16.71317 | 18022 ft | 393 kts | 263° |
| 2026-05-06 19:23 | 48.25804 | 16.67220 | 18591 ft | 396 kts | 263° |
| 2026-05-06 19:23 | 48.25597 | 16.63130 | 19144 ft | 398 kts | 263° |
| 2026-05-06 19:24 | 48.25387 | 16.58982 | 19693 ft | 401 kts | 263° |
| 2026-05-06 19:24 | 48.25174 | 16.54810 | 20224 ft | 403 kts | 263° |
| 2026-05-06 19:24 | 48.24957 | 16.50575 | 20742 ft | 405 kts | 263° |
| 2026-05-06 19:24 | 48.24741 | 16.46382 | 21215 ft | 408 kts | 263° |
| 2026-05-06 19:25 | 48.24518 | 16.42114 | 21678 ft | 411 kts | 263° |
| 2026-05-06 19:25 | 48.24294 | 16.37834 | 22151 ft | 414 kts | 263° |
| 2026-05-06 19:25 | 48.24069 | 16.33557 | 22616 ft | 416 kts | 262° |
| 2026-05-06 19:25 | 48.23838 | 16.29195 | 23090 ft | 419 kts | 262° |
| 2026-05-06 19:26 | 48.23606 | 16.24853 | 23552 ft | 420 kts | 262° |
| 2026-05-06 19:26 | 48.23373 | 16.20506 | 23813 ft | 423 kts | 262° |
| 2026-05-06 19:26 | 48.23135 | 16.16105 | 23869 ft | 421 kts | 262° |
| 2026-05-06 19:26 | 48.22898 | 16.11740 | 23895 ft | 420 kts | 262° |
| 2026-05-06 19:27 | 48.22662 | 16.07409 | 23885 ft | 419 kts | 262° |
| 2026-05-06 19:27 | 48.22424 | 16.03081 | 23845 ft | 418 kts | 262° |
| 2026-05-06 19:27 | 48.22184 | 15.98752 | 23825 ft | 418 kts | 262° |
| 2026-05-06 19:27 | 48.21939 | 15.94390 | 23814 ft | 418 kts | 262° |
| 2026-05-06 19:28 | 48.21694 | 15.90043 | 23803 ft | 418 kts | 262° |
| 2026-05-06 19:28 | 48.21450 | 15.85739 | 23787 ft | 418 kts | 262° |
| 2026-05-06 19:28 | 48.21201 | 15.81393 | 23780 ft | 418 kts | 262° |
| 2026-05-06 19:28 | 48.20953 | 15.77090 | 23777 ft | 418 kts | 262° |
| 2026-05-06 19:29 | 48.20702 | 15.72742 | 23780 ft | 418 kts | 262° |
| 2026-05-06 19:29 | 48.20450 | 15.68425 | 23787 ft | 418 kts | 262° |
| 2026-05-06 19:29 | 48.20197 | 15.64122 | 23792 ft | 418 kts | 262° |
| 2026-05-06 19:29 | 48.19939 | 15.59758 | 23796 ft | 418 kts | 262° |
| 2026-05-06 19:30 | 48.19684 | 15.55461 | 23800 ft | 418 kts | 262° |
| 2026-05-06 19:30 | 48.19425 | 15.51125 | 23806 ft | 418 kts | 262° |
| 2026-05-06 19:30 | 48.19163 | 15.46794 | 23813 ft | 418 kts | 262° |
| 2026-05-06 19:30 | 48.18904 | 15.42466 | 23816 ft | 418 kts | 262° |
| 2026-05-06 19:31 | 48.18646 | 15.38179 | 23817 ft | 417 kts | 262° |
| 2026-05-06 19:31 | 48.18382 | 15.33841 | 23817 ft | 417 kts | 262° |
| 2026-05-06 19:31 | 48.17846 | 15.25176 | 23815 ft | 417 kts | 261° |
| 2026-05-06 19:32 | 48.17577 | 15.20863 | 23815 ft | 417 kts | 261° |
| 2026-05-06 19:32 | 48.17304 | 15.16526 | 23816 ft | 417 kts | 261° |
| 2026-05-06 19:32 | 48.17032 | 15.12237 | 23818 ft | 417 kts | 261° |
| 2026-05-06 19:32 | 48.16757 | 15.07907 | 23821 ft | 417 kts | 261° |
| 2026-05-06 19:33 | 48.16479 | 15.03576 | 23825 ft | 417 kts | 261° |
| 2026-05-06 19:33 | 48.16204 | 14.99308 | 23827 ft | 417 kts | 261° |
| 2026-05-06 19:33 | 48.15923 | 14.94973 | 23826 ft | 417 kts | 261° |
| 2026-05-06 19:33 | 48.15644 | 14.90700 | 23825 ft | 417 kts | 261° |
| 2026-05-06 19:34 | 48.15361 | 14.86380 | 23823 ft | 417 kts | 261° |
| 2026-05-06 19:34 | 48.15076 | 14.82052 | 23817 ft | 417 kts | 261° |
| 2026-05-06 19:34 | 48.14792 | 14.77778 | 23810 ft | 417 kts | 261° |
| 2026-05-06 19:34 | 48.14506 | 14.73487 | 23803 ft | 417 kts | 261° |
| 2026-05-06 19:35 | 48.14214 | 14.69145 | 23794 ft | 417 kts | 261° |
| 2026-05-06 19:35 | 48.13927 | 14.64892 | 23787 ft | 417 kts | 261° |
| 2026-05-06 19:35 | 48.13631 | 14.60531 | 23782 ft | 417 kts | 261° |
| 2026-05-06 19:35 | 48.13338 | 14.56233 | 23779 ft | 417 kts | 261° |
| 2026-05-06 19:36 | 48.13046 | 14.51971 | 23713 ft | 417 kts | 261° |
| 2026-05-06 19:36 | 48.12751 | 14.47685 | 23248 ft | 415 kts | 261° |
| 2026-05-06 19:36 | 48.12455 | 14.43409 | 22739 ft | 411 kts | 261° |
| 2026-05-06 19:36 | 48.12161 | 14.39186 | 22200 ft | 408 kts | 261° |
| 2026-05-06 19:37 | 48.11869 | 14.35026 | 21614 ft | 404 kts | 261° |
| 2026-05-06 19:37 | 48.11573 | 14.30829 | 20990 ft | 400 kts | 261° |
| 2026-05-06 19:37 | 48.11279 | 14.26677 | 20403 ft | 395 kts | 261° |
| 2026-05-06 19:37 | 48.11087 | 14.23985 | 20030 ft | 392 kts | 261° |
| 2026-05-06 19:38 | 48.10704 | 14.18621 | 19290 ft | 386 kts | 261° |
| 2026-05-06 19:38 | 48.10422 | 14.14719 | 18755 ft | 381 kts | 261° |
| 2026-05-06 19:38 | 48.10139 | 14.10791 | 18212 ft | 377 kts | 260° |
| 2026-05-06 19:38 | 48.09857 | 14.06911 | 17672 ft | 374 kts | 260° |
| 2026-05-06 19:39 | 48.09578 | 14.03101 | 17144 ft | 370 kts | 260° |
| 2026-05-06 19:39 | 48.09297 | 13.99273 | 16613 ft | 366 kts | 260° |
| 2026-05-06 19:39 | 48.09020 | 13.95538 | 16096 ft | 363 kts | 260° |
| 2026-05-06 19:39 | 48.08742 | 13.91810 | 15577 ft | 360 kts | 260° |
| 2026-05-06 19:40 | 48.08464 | 13.88094 | 15059 ft | 357 kts | 260° |
| 2026-05-06 19:40 | 48.08188 | 13.84430 | 14552 ft | 354 kts | 261° |
| 2026-05-06 19:40 | 48.07916 | 13.80831 | 14056 ft | 349 kts | 261° |
| 2026-05-06 19:40 | 48.07641 | 13.77252 | 13562 ft | 345 kts | 261° |
| 2026-05-06 19:41 | 48.07367 | 13.73685 | 13067 ft | 342 kts | 261° |
| 2026-05-06 19:41 | 48.07100 | 13.70222 | 12574 ft | 339 kts | 261° |
| 2026-05-06 19:41 | 48.06834 | 13.66723 | 12075 ft | 336 kts | 261° |
| 2026-05-06 19:41 | 48.06573 | 13.63292 | 11574 ft | 334 kts | 262° |
| 2026-05-06 19:42 | 48.06308 | 13.59867 | 11193 ft | 327 kts | 262° |
| 2026-05-06 19:42 | 48.06050 | 13.56573 | 11004 ft | 313 kts | 263° |
| 2026-05-06 19:42 | 48.05815 | 13.53431 | 10828 ft | 301 kts | 262° |
| 2026-05-06 19:42 | 48.05576 | 13.50368 | 10660 ft | 289 kts | 262° |
| 2026-05-06 19:43 | 48.05330 | 13.47446 | 10505 ft | 277 kts | 262° |
| 2026-05-06 19:43 | 48.05084 | 13.44661 | 10362 ft | 266 kts | 262° |
| 2026-05-06 19:43 | 48.04865 | 13.41981 | 10224 ft | 257 kts | 261° |
| 2026-05-06 19:43 | 48.04642 | 13.39372 | 10098 ft | 252 kts | 261° |
| 2026-05-06 19:44 | 48.04413 | 13.36777 | 9824 ft | 253 kts | 262° |
| 2026-05-06 19:44 | 48.04181 | 13.34165 | 9476 ft | 254 kts | 263° |
| 2026-05-06 19:44 | 48.03977 | 13.31550 | 9136 ft | 255 kts | 261° |
| 2026-05-06 19:44 | 48.03749 | 13.28903 | 8792 ft | 255 kts | 262° |
| 2026-05-06 19:45 | 48.03538 | 13.26553 | 8501 ft | 254 kts | 262° |
| 2026-05-06 19:45 | 48.03306 | 13.23673 | 8131 ft | 254 kts | 261° |
| 2026-05-06 19:45 | 48.03085 | 13.21082 | 7797 ft | 254 kts | 261° |
| 2026-05-06 19:45 | 48.02852 | 13.18443 | 7458 ft | 254 kts | 261° |
| 2026-05-06 19:46 | 48.02632 | 13.15854 | 7125 ft | 254 kts | 261° |
| 2026-05-06 19:46 | 48.02403 | 13.13238 | 6799 ft | 253 kts | 261° |
| 2026-05-06 19:46 | 48.02175 | 13.10652 | 6486 ft | 250 kts | 261° |
| 2026-05-06 19:46 | 48.01948 | 13.08103 | 6178 ft | 248 kts | 261° |
| 2026-05-06 19:47 | 48.01723 | 13.05561 | 5869 ft | 246 kts | 261° |
| 2026-05-06 19:47 | 48.01498 | 13.03034 | 5557 ft | 245 kts | 261° |
| 2026-05-06 19:47 | 48.01266 | 13.00512 | 5233 ft | 246 kts | 263° |
| 2026-05-06 19:47 | 48.01047 | 12.98015 | 4926 ft | 244 kts | 263° |
| 2026-05-06 19:48 | 48.00830 | 12.95489 | 4610 ft | 243 kts | 262° |
| 2026-05-06 19:48 | 48.00583 | 12.93005 | 4294 ft | 243 kts | 254° |
| 2026-05-06 19:48 | 47.99739 | 12.90867 | 4036 ft | 238 kts | 222° |
| 2026-05-06 19:48 | 47.98322 | 12.89808 | 4026 ft | 226 kts | 191° |
| 2026-05-06 19:49 | 47.96751 | 12.89749 | 4031 ft | 225 kts | 176° |
| 2026-05-06 19:49 | 47.95277 | 12.90261 | 4012 ft | 213 kts | 165° |
| 2026-05-06 19:49 | 47.93918 | 12.91063 | 4057 ft | 206 kts | 160° |
| 2026-05-06 19:49 | 47.92653 | 12.91909 | 4035 ft | 190 kts | 160° |
| 2026-05-06 19:50 | 47.91493 | 12.92679 | 3771 ft | 177 kts | 161° |
| 2026-05-06 19:50 | 47.90402 | 12.93384 | 3533 ft | 166 kts | 161° |
| 2026-05-06 19:50 | 47.89372 | 12.94036 | 3336 ft | 159 kts | 162° |
| 2026-05-06 19:50 | 47.88360 | 12.94672 | 3136 ft | 152 kts | 162° |
| 2026-05-06 19:51 | 47.87429 | 12.95264 | 2924 ft | 144 kts | 162° |
| 2026-05-06 19:51 | 47.86513 | 12.95843 | 2743 ft | 143 kts | 162° |
| 2026-05-06 19:51 | 47.85590 | 12.96421 | 2559 ft | 142 kts | 161° |
| 2026-05-06 19:51 | 47.84682 | 12.96993 | 2360 ft | 142 kts | 160° |
| 2026-05-06 19:52 | 47.83770 | 12.97569 | 2170 ft | 142 kts | 160° |
| 2026-05-06 19:52 | 47.82860 | 12.98156 | 1973 ft | 142 kts | 159° |
| 2026-05-06 19:52 | 47.81959 | 12.98728 | 1788 ft | 142 kts | 158° |
| 2026-05-06 19:52 | 47.81040 | 12.99309 | 1564 ft | 143 kts | 157° |
| 2026-05-06 19:53 | 47.80137 | 12.99880 | 1429 ft | 142 kts | 155° |
| 2026-05-06 19:53 | 47.79320 | 13.00399 | 1419 ft | 93 kts | 156° |
| 2026-05-06 19:53 | 47.78838 | 13.00710 | 1420 ft | 53 kts | 159° |
| 2026-05-06 19:53 | 47.78696 | 13.00796 | 1419 ft | 0 kts | 157° |
| 2026-05-06 19:54 | 47.78653 | 13.00823 | 1419 ft | 16 kts | 157° |
| 2026-05-06 19:54 | 47.78547 | 13.00786 | 1419 ft | 17 kts | 243° |
| 2026-05-06 19:54 | 47.78555 | 13.00623 | 1419 ft | 16 kts | 319° |
| 2026-05-06 19:54 | 47.78661 | 13.00549 | 1419 ft | 16 kts | 337° |
| 2026-05-06 19:55 | 47.78768 | 13.00482 | 1419 ft | 16 kts | 336° |
| 2026-05-06 19:55 | 47.78875 | 13.00413 | 1419 ft | 16 kts | 337° |
| 2026-05-06 19:55 | 47.78951 | 13.00300 | 1419 ft | 16 kts | 277° |
| 2026-05-06 19:55 | 47.78969 | 13.00142 | 1419 ft | 14 kts | 324° |
| 2026-05-06 19:56 | 47.79065 | 13.00083 | 1419 ft | 14 kts | 334° |
| 2026-05-06 19:56 | 47.79086 | 12.99982 | 1419 ft | 9 kts | 281° |
| 2026-05-06 19:56 | 47.79094 | 12.99933 | 1419 ft | 1 kts | 284° |
| 2026-05-06 19:56 | 47.79094 | 12.99932 | 1419 ft | 0 kts | 284° |